createdAt,value
2018-07-31T00:02:08.885Z,5.15
2018-07-31T00:04:37.291Z,4.87
2018-07-31T00:07:05.658Z,5.28
2018-07-31T00:09:34.030Z,4.80
2018-07-31T00:12:02.470Z,5.05
2018-07-31T00:14:30.832Z,5.00
2018-07-31T00:16:58.941Z,4.90
2018-07-31T00:19:27.271Z,5.33
2018-07-31T00:21:55.667Z,4.75
2018-07-31T00:24:23.743Z,5.00
2018-07-31T00:26:52.130Z,4.47
2018-07-31T00:29:20.459Z,5.20
2018-07-31T00:31:48.836Z,5.15
2018-07-31T00:34:17.200Z,4.80
2018-07-31T00:36:45.560Z,4.30
2018-07-31T00:39:13.912Z,4.37
2018-07-31T00:41:42.534Z,4.80
2018-07-31T00:44:10.897Z,4.83
2018-07-31T00:46:39.256Z,5.20
2018-07-31T00:49:07.319Z,5.07
2018-07-31T00:51:35.734Z,4.67
2018-07-31T00:54:04.150Z,4.73
2018-07-31T00:56:32.555Z,4.70
2018-07-31T00:59:00.901Z,5.13
2018-07-31T01:01:29.255Z,4.73
2018-07-31T01:03:57.598Z,4.90
2018-07-31T01:06:26.622Z,4.77
2018-07-31T01:08:55.048Z,4.90
2018-07-31T01:11:23.596Z,5.33
2018-07-31T01:13:51.972Z,4.70
2018-07-31T01:16:20.360Z,4.77
2018-07-31T01:18:48.700Z,5.70
2018-07-31T01:21:16.841Z,4.97
2018-07-31T01:23:45.215Z,5.00
2018-07-31T01:26:13.536Z,4.97
2018-07-31T01:28:41.615Z,5.00
2018-07-31T01:31:09.673Z,4.83
2018-07-31T01:33:37.752Z,5.03
2018-07-31T01:36:05.803Z,5.07
2018-07-31T01:38:34.171Z,5.43
2018-07-31T01:41:02.509Z,5.07
2018-07-31T01:43:30.864Z,5.33
2018-07-31T01:45:59.015Z,5.10
2018-07-31T01:48:27.297Z,5.20
2018-07-31T01:50:55.610Z,5.30
2018-07-31T01:53:23.950Z,4.97
2018-07-31T01:55:52.265Z,4.93
2018-07-31T01:58:20.607Z,4.87
2018-07-31T02:00:48.938Z,5.27
2018-07-31T02:03:17.296Z,4.73
2018-07-31T02:05:45.616Z,5.27
2018-07-31T02:08:13.959Z,6.00
2018-07-31T02:10:42.276Z,5.30
2018-07-31T02:13:10.647Z,5.40
2018-07-31T02:15:38.960Z,5.90
2018-07-31T02:18:07.320Z,5.73
2018-07-31T02:20:35.670Z,5.47
2018-07-31T02:23:04.027Z,5.60
2018-07-31T02:25:32.094Z,5.57
2018-07-31T02:28:00.290Z,5.20
2018-07-31T02:30:28.520Z,5.37
2018-07-31T02:32:56.906Z,5.70
2018-07-31T02:35:25.228Z,5.30
2018-07-31T02:37:53.567Z,5.20
2018-07-31T02:40:21.922Z,5.37
2018-07-31T02:42:50.020Z,5.67
2018-07-31T02:45:18.338Z,5.83
2018-07-31T02:47:46.656Z,5.70
2018-07-31T02:50:15.016Z,6.00
2018-07-31T02:52:43.337Z,6.03
2018-07-31T02:55:12.115Z,5.60
2018-07-31T02:57:41.220Z,5.50
2018-07-31T03:00:10.547Z,5.83
2018-07-31T03:02:38.892Z,5.93
2018-07-31T03:05:09.052Z,6.07
2018-07-31T03:07:37.372Z,5.80
2018-07-31T03:10:06.938Z,5.77
2018-07-31T03:12:35.244Z,6.40
2018-07-31T03:15:03.641Z,6.30
2018-07-31T03:17:31.982Z,5.50
2018-07-31T03:20:00.325Z,5.80
2018-07-31T03:22:28.681Z,5.83
2018-07-31T03:24:57.035Z,6.00
2018-07-31T03:27:25.353Z,6.13
2018-07-31T03:29:53.716Z,5.57
2018-07-31T03:32:22.058Z,5.60
2018-07-31T03:34:50.475Z,5.77
2018-07-31T03:37:18.803Z,5.70
2018-07-31T03:39:47.176Z,5.90
2018-07-31T03:42:15.238Z,6.40
2018-07-31T03:44:43.600Z,6.40
2018-07-31T03:47:11.932Z,5.93
2018-07-31T03:49:40.290Z,6.77
2018-07-31T03:52:08.369Z,6.67
2018-07-31T03:54:36.730Z,6.57
2018-07-31T03:57:05.188Z,6.90
2018-07-31T03:59:33.572Z,5.90
2018-07-31T04:02:01.972Z,6.00
2018-07-31T04:04:30.084Z,6.50
2018-07-31T04:06:58.423Z,6.10
2018-07-31T04:09:26.514Z,6.40
2018-07-31T04:11:54.843Z,6.33
2018-07-31T04:14:23.207Z,6.33
2018-07-31T04:16:51.568Z,6.60
2018-07-31T04:19:19.936Z,6.37
2018-07-31T04:21:48.336Z,6.17
2018-07-31T04:24:16.859Z,6.87
2018-07-31T04:26:45.243Z,7.07
2018-07-31T04:29:13.560Z,7.00
2018-07-31T04:31:41.907Z,6.70
2018-07-31T04:34:10.234Z,6.73
2018-07-31T04:36:38.592Z,6.27
2018-07-31T04:39:09.000Z,6.90
2018-07-31T04:41:37.074Z,6.67
2018-07-31T04:44:05.371Z,6.80
2018-07-31T04:46:33.751Z,6.63
2018-07-31T04:49:02.096Z,6.70
2018-07-31T04:51:30.509Z,7.03
2018-07-31T04:53:59.288Z,7.23
2018-07-31T04:56:27.496Z,6.87
2018-07-31T04:58:56.883Z,7.80
2018-07-31T05:01:26.017Z,7.53
2018-07-31T05:03:54.511Z,8.33
2018-07-31T05:06:23.004Z,7.57
2018-07-31T05:08:51.413Z,7.60
2018-07-31T05:11:19.906Z,7.33
2018-07-31T05:13:48.492Z,7.83
2018-07-31T05:16:16.894Z,7.83
2018-07-31T05:18:47.174Z,8.40
2018-07-31T05:21:15.709Z,8.73
2018-07-31T05:23:44.103Z,7.70
2018-07-31T05:26:12.668Z,7.40
2018-07-31T05:28:41.157Z,6.90
2018-07-31T05:31:09.976Z,7.03
2018-07-31T05:33:38.877Z,7.67
2018-07-31T05:36:10.345Z,7.60
2018-07-31T05:38:38.777Z,7.80
2018-07-31T05:41:07.255Z,8.20
2018-07-31T05:43:35.570Z,7.80
2018-07-31T05:46:03.962Z,7.93
2018-07-31T05:48:32.261Z,8.03
2018-07-31T05:51:00.608Z,8.37
2018-07-31T05:53:28.928Z,7.90
2018-07-31T05:55:57.282Z,8.30
2018-07-31T05:58:25.336Z,8.27
2018-07-31T06:00:53.658Z,8.80
2018-07-31T06:03:22.003Z,9.17
2018-07-31T06:05:50.332Z,9.27
2018-07-31T06:08:19.503Z,8.63
2018-07-31T06:10:47.825Z,9.20
2018-07-31T06:13:16.185Z,9.20
2018-07-31T06:15:44.715Z,9.10
2018-07-31T06:18:13.080Z,9.33
2018-07-31T06:20:41.424Z,8.77
2018-07-31T06:23:09.759Z,8.47
2018-07-31T06:25:38.138Z,8.47
2018-07-31T06:28:06.483Z,8.67
2018-07-31T06:30:34.801Z,9.00
2018-07-31T06:33:02.875Z,8.83
2018-07-31T06:35:31.203Z,9.40
2018-07-31T06:37:59.575Z,8.97
2018-07-31T06:40:27.899Z,9.00
2018-07-31T06:42:56.259Z,9.17
2018-07-31T06:45:24.576Z,8.83
2018-07-31T06:47:52.963Z,8.07
2018-07-31T06:50:21.010Z,8.23
2018-07-31T06:52:49.348Z,8.23
2018-07-31T06:55:17.668Z,8.07
2018-07-31T06:57:46.045Z,7.30
2018-07-31T07:00:14.367Z,7.87
2018-07-31T07:02:42.707Z,7.60
2018-07-31T07:05:11.040Z,8.03
2018-07-31T07:07:39.395Z,6.83
2018-07-31T07:10:07.823Z,6.40
2018-07-31T07:12:36.185Z,6.03
2018-07-31T07:15:04.659Z,6.20
2018-07-31T07:17:33.046Z,6.40
2018-07-31T07:20:01.372Z,5.80
2018-07-31T07:22:29.785Z,6.25
2018-07-31T07:24:58.115Z,5.87
2018-07-31T07:27:26.516Z,6.28
2018-07-31T07:29:54.574Z,6.93
2018-07-31T07:32:22.897Z,6.42
2018-07-31T07:34:51.452Z,6.80
2018-07-31T07:37:19.523Z,6.17
2018-07-31T07:39:47.598Z,6.55
2018-07-31T07:42:15.655Z,6.00
2018-07-31T07:44:44.004Z,7.40
2018-07-31T07:47:12.619Z,6.95
2018-07-31T07:49:41.780Z,6.97
2018-07-31T07:52:10.118Z,7.28
2018-07-31T07:54:38.194Z,7.35
2018-07-31T07:57:06.899Z,6.97
2018-07-31T07:59:35.575Z,7.10
2018-07-31T08:02:03.930Z,7.08
2018-07-31T08:04:32.304Z,7.55
2018-07-31T08:07:00.644Z,6.67
2018-07-31T08:09:29.020Z,7.50
2018-07-31T08:11:57.401Z,8.10
2018-07-31T08:14:25.753Z,7.53
2018-07-31T08:16:54.104Z,7.92
2018-07-31T08:19:22.443Z,7.22
2018-07-31T08:21:50.780Z,7.50
2018-07-31T08:24:18.863Z,6.95
2018-07-31T08:26:47.175Z,7.12
2018-07-31T08:29:15.548Z,6.47
2018-07-31T08:31:43.896Z,7.00
2018-07-31T08:34:12.336Z,6.90
2018-07-31T08:36:40.652Z,7.17
2018-07-31T08:39:09.968Z,7.78
2018-07-31T08:41:38.292Z,7.10
2018-07-31T08:44:07.130Z,7.75
2018-07-31T08:46:35.451Z,7.25
2018-07-31T08:49:03.824Z,7.65
2018-07-31T08:51:32.149Z,7.97
2018-07-31T08:54:00.258Z,7.90
2018-07-31T08:56:28.579Z,7.33
2018-07-31T08:58:56.940Z,7.42
2018-07-31T09:01:25.279Z,6.78
2018-07-31T09:03:53.892Z,8.85
2018-07-31T09:06:22.268Z,8.23
2018-07-31T09:08:50.655Z,8.00
2018-07-31T09:11:18.959Z,7.58
2018-07-31T09:13:47.287Z,7.70
2018-07-31T09:16:15.623Z,7.83
2018-07-31T09:18:43.935Z,8.53
2018-07-31T09:21:12.315Z,8.20
2018-07-31T09:23:40.640Z,7.85
2018-07-31T09:26:09.013Z,7.72
2018-07-31T09:28:37.339Z,6.58
2018-07-31T09:31:11.184Z,7.75
2018-07-31T09:33:39.507Z,7.08
2018-07-31T09:36:07.879Z,6.45
2018-07-31T09:38:36.220Z,6.37
2018-07-31T09:41:04.589Z,6.78
2018-07-31T09:43:32.919Z,6.85
2018-07-31T09:46:01.267Z,5.65
2018-07-31T09:48:29.644Z,5.90
2018-07-31T09:50:57.976Z,6.00
2018-07-31T09:53:26.304Z,5.45
2018-07-31T09:55:54.652Z,5.22
2018-07-31T09:58:22.996Z,4.90
2018-07-31T10:00:56.760Z,5.30
2018-07-31T10:03:25.100Z,5.50
2018-07-31T10:05:53.190Z,5.72
2018-07-31T10:08:22.459Z,5.30
2018-07-31T10:10:52.299Z,4.33
2018-07-31T10:13:20.692Z,4.58
2018-07-31T10:15:49.256Z,4.62
2018-07-31T10:18:17.693Z,4.70
2018-07-31T10:20:46.103Z,4.15
2018-07-31T10:23:14.430Z,4.33
2018-07-31T10:25:42.777Z,5.75
2018-07-31T10:28:11.100Z,5.17
2018-07-31T10:30:39.454Z,4.90
2018-07-31T10:33:07.796Z,4.97
2018-07-31T10:35:36.199Z,4.08
2018-07-31T10:38:04.588Z,4.50
2018-07-31T10:40:33.171Z,4.75
2018-07-31T10:43:01.490Z,5.37
2018-07-31T10:45:29.856Z,4.58
2018-07-31T10:47:58.197Z,4.60
2018-07-31T10:50:26.524Z,4.67
2018-07-31T10:52:54.870Z,4.92
2018-07-31T10:55:23.188Z,4.80
2018-07-31T10:57:51.535Z,4.45
2018-07-31T11:00:19.881Z,4.65
2018-07-31T11:02:47.993Z,5.15
2018-07-31T11:05:16.314Z,4.28
2018-07-31T11:07:44.656Z,4.40
2018-07-31T11:10:12.984Z,4.00
2018-07-31T11:12:41.059Z,4.03
2018-07-31T11:15:09.110Z,3.72
2018-07-31T11:17:37.451Z,3.98
2018-07-31T11:20:05.976Z,3.95
2018-07-31T11:22:34.357Z,3.87
2018-07-31T11:25:02.671Z,3.98
2018-07-31T11:27:31.043Z,3.77
2018-07-31T11:29:59.347Z,3.95
2018-07-31T11:32:27.688Z,3.98
2018-07-31T11:34:55.743Z,3.75
2018-07-31T11:37:24.124Z,3.08
2018-07-31T11:39:52.444Z,4.17
2018-07-31T11:42:20.812Z,3.72
2018-07-31T11:44:49.129Z,3.42
2018-07-31T11:47:17.467Z,3.90
2018-07-31T11:49:45.844Z,3.58
2018-07-31T11:52:14.184Z,3.65
2018-07-31T11:54:42.515Z,3.47
2018-07-31T11:57:10.861Z,3.40
2018-07-31T11:59:38.918Z,3.20
2018-07-31T12:02:07.560Z,3.05
2018-07-31T12:04:35.887Z,3.10
2018-07-31T12:07:04.215Z,2.67
2018-07-31T12:09:32.552Z,2.50
2018-07-31T12:12:00.628Z,3.12
2018-07-31T12:14:28.989Z,3.40
2018-07-31T12:16:57.331Z,2.85
2018-07-31T12:19:25.701Z,3.08
2018-07-31T12:21:54.081Z,3.02
2018-07-31T12:24:22.431Z,2.87
2018-07-31T12:26:50.516Z,3.30
2018-07-31T12:29:18.864Z,3.50
2018-07-31T12:31:47.187Z,3.10
2018-07-31T12:34:15.543Z,3.30
2018-07-31T12:36:45.834Z,2.95
2018-07-31T12:39:14.304Z,3.30
2018-07-31T12:41:42.676Z,2.87
2018-07-31T12:44:11.048Z,3.10
2018-07-31T12:46:39.367Z,3.12
2018-07-31T12:49:07.751Z,3.22
2018-07-31T12:51:36.340Z,3.17
2018-07-31T12:54:04.743Z,3.02
2018-07-31T12:56:33.099Z,2.72
2018-07-31T12:59:01.455Z,2.70
2018-07-31T13:01:29.787Z,2.90
2018-07-31T13:03:58.137Z,2.90
2018-07-31T13:06:26.463Z,2.70
2018-07-31T13:08:54.816Z,2.80
2018-07-31T13:11:23.152Z,4.00
2018-07-31T13:13:51.508Z,2.72
2018-07-31T13:16:19.831Z,2.40
2018-07-31T13:18:47.929Z,2.40
2018-07-31T13:21:16.276Z,2.52
2018-07-31T13:23:44.619Z,2.60
2018-07-31T13:26:12.923Z,2.40
2018-07-31T13:28:41.282Z,2.60
2018-07-31T13:31:09.602Z,2.52
2018-07-31T13:33:37.706Z,2.55
2018-07-31T13:36:06.071Z,2.90
2018-07-31T13:38:34.384Z,2.80
2018-07-31T13:41:02.726Z,2.90
2018-07-31T13:43:31.111Z,2.65
2018-07-31T13:45:59.420Z,3.15
2018-07-31T13:48:27.788Z,2.67
2018-07-31T13:50:56.128Z,2.80
2018-07-31T13:53:24.448Z,2.50
2018-07-31T13:55:52.798Z,2.58
2018-07-31T13:58:21.130Z,2.67
2018-07-31T14:00:49.491Z,2.58
2018-07-31T14:03:17.815Z,2.50
2018-07-31T14:05:46.155Z,2.50
2018-07-31T14:08:14.463Z,2.52
2018-07-31T14:10:42.816Z,2.92
2018-07-31T14:13:11.132Z,2.62
2018-07-31T14:15:39.216Z,2.27
2018-07-31T14:18:07.259Z,2.47
2018-07-31T14:20:35.636Z,2.50
2018-07-31T14:23:03.964Z,2.45
2018-07-31T14:25:32.307Z,2.52
2018-07-31T14:28:00.619Z,2.20
2018-07-31T14:30:28.958Z,2.20
2018-07-31T14:32:57.268Z,2.40
2018-07-31T14:35:25.619Z,2.27
2018-07-31T14:37:53.946Z,2.20
2018-07-31T14:40:22.288Z,2.40
2018-07-31T14:42:50.655Z,2.30
2018-07-31T14:45:19.004Z,2.08
2018-07-31T14:47:47.316Z,2.20
2018-07-31T14:50:15.655Z,2.35
2018-07-31T14:52:43.975Z,2.15
2018-07-31T14:55:12.346Z,2.60
2018-07-31T14:57:40.673Z,1.90
2018-07-31T15:00:09.217Z,2.20
2018-07-31T15:02:37.539Z,1.90
2018-07-31T15:05:06.199Z,2.52
2018-07-31T15:07:34.511Z,2.30
2018-07-31T15:10:02.828Z,2.10
2018-07-31T15:12:31.164Z,2.00
2018-07-31T15:14:59.483Z,2.58
2018-07-31T15:17:27.815Z,2.37
2018-07-31T15:19:56.133Z,2.10
2018-07-31T15:22:24.511Z,2.15
2018-07-31T15:24:53.136Z,1.95
2018-07-31T15:27:21.481Z,2.33
2018-07-31T15:29:49.820Z,2.17
2018-07-31T15:32:18.172Z,2.85
2018-07-31T15:34:46.501Z,2.42
2018-07-31T15:37:14.856Z,2.30
2018-07-31T15:39:43.204Z,2.40
2018-07-31T15:42:11.588Z,2.20
2018-07-31T15:44:39.920Z,2.67
2018-07-31T15:47:08.295Z,2.60
2018-07-31T15:49:36.663Z,2.50
2018-07-31T15:52:05.029Z,2.35
2018-07-31T15:54:33.367Z,2.37
2018-07-31T15:57:01.733Z,2.47
2018-07-31T15:59:30.323Z,2.92
2018-07-31T16:01:58.662Z,2.47
2018-07-31T16:04:26.987Z,2.80
2018-07-31T16:06:55.355Z,2.40
2018-07-31T16:09:23.720Z,2.62
2018-07-31T16:11:52.088Z,2.37
2018-07-31T16:14:20.423Z,2.55
2018-07-31T16:16:48.807Z,2.60
2018-07-31T16:19:17.137Z,2.50
2018-07-31T16:21:45.517Z,2.50
2018-07-31T16:24:13.883Z,2.20
2018-07-31T16:26:42.229Z,2.42
2018-07-31T16:29:10.556Z,2.60
2018-07-31T16:31:38.910Z,2.05
2018-07-31T16:34:07.273Z,2.37
2018-07-31T16:36:35.595Z,2.62
2018-07-31T16:39:05.723Z,2.98
2018-07-31T16:41:34.077Z,2.50
2018-07-31T16:44:02.417Z,2.77
2018-07-31T16:46:31.001Z,2.52
2018-07-31T16:48:59.347Z,2.55
2018-07-31T16:51:27.771Z,2.80
2018-07-31T16:53:56.053Z,2.67
2018-07-31T16:56:24.380Z,2.40
2018-07-31T16:58:52.691Z,2.90
2018-07-31T17:01:21.015Z,2.50
2018-07-31T17:03:49.374Z,2.80
2018-07-31T17:06:17.720Z,2.70
2018-07-31T17:08:45.806Z,2.80
2018-07-31T17:11:14.140Z,2.27
2018-07-31T17:13:42.508Z,2.58
2018-07-31T17:16:10.859Z,2.50
2018-07-31T17:18:39.195Z,2.65
2018-07-31T17:21:07.287Z,2.60
2018-07-31T17:23:35.635Z,2.95
2018-07-31T17:26:03.985Z,2.70
2018-07-31T17:28:32.351Z,2.87
2018-07-31T17:31:00.682Z,3.30
2018-07-31T17:33:29.032Z,2.65
2018-07-31T17:35:57.361Z,2.42
2018-07-31T17:38:25.716Z,2.80
2018-07-31T17:40:54.060Z,2.75
2018-07-31T17:43:22.420Z,2.98
2018-07-31T17:45:50.775Z,2.70
2018-07-31T17:48:19.128Z,2.67
2018-07-31T17:50:47.464Z,2.80
2018-07-31T17:53:15.840Z,2.60
2018-07-31T17:55:44.187Z,2.70
2018-07-31T17:58:12.435Z,2.75
2018-07-31T18:00:40.527Z,2.87
2018-07-31T18:03:08.662Z,3.10
2018-07-31T18:05:37.014Z,2.65
2018-07-31T18:08:05.420Z,2.52
2018-07-31T18:10:34.131Z,3.02
2018-07-31T18:13:02.507Z,3.20
2018-07-31T18:15:30.969Z,2.83
2018-07-31T18:17:59.348Z,2.92
2018-07-31T18:20:27.704Z,3.08
2018-07-31T18:22:56.052Z,3.58
2018-07-31T18:25:24.135Z,2.80
2018-07-31T18:27:52.523Z,3.10
2018-07-31T18:30:20.879Z,3.27
2018-07-31T18:32:49.219Z,3.50
2018-07-31T18:35:17.595Z,3.27
2018-07-31T18:37:45.934Z,3.60
2018-07-31T18:40:14.256Z,3.45
2018-07-31T18:42:42.632Z,3.30
2018-07-31T18:45:10.959Z,3.55
2018-07-31T18:47:39.014Z,4.00
2018-07-31T18:50:07.423Z,3.50
2018-07-31T18:52:35.758Z,3.87
2018-07-31T18:55:04.105Z,3.90
2018-07-31T18:57:32.452Z,3.33
2018-07-31T19:00:00.827Z,3.77
2018-07-31T19:02:28.900Z,3.77
2018-07-31T19:04:56.970Z,3.40
2018-07-31T19:07:25.300Z,3.50
2018-07-31T19:09:53.635Z,3.52
2018-07-31T19:12:21.964Z,3.90
2018-07-31T19:14:50.042Z,3.40
2018-07-31T19:17:18.359Z,3.22
2018-07-31T19:19:46.737Z,3.60
2018-07-31T19:22:14.860Z,3.77
2018-07-31T19:24:43.203Z,3.47
2018-07-31T19:27:12.380Z,3.60
2018-07-31T19:29:40.467Z,3.05
2018-07-31T19:32:08.775Z,2.98
2018-07-31T19:34:37.127Z,3.30
2018-07-31T19:37:05.520Z,3.35
2018-07-31T19:39:33.864Z,3.12
2018-07-31T19:42:02.250Z,3.27
2018-07-31T19:44:30.616Z,3.20
2018-07-31T19:46:58.937Z,3.50
2018-07-31T19:49:27.369Z,3.40
2018-07-31T19:51:55.361Z,3.50
2018-07-31T19:54:23.723Z,3.65
2018-07-31T19:56:52.089Z,3.10
2018-07-31T19:59:20.431Z,3.37
2018-07-31T20:01:48.761Z,3.67
2018-07-31T20:04:17.115Z,3.42
2018-07-31T20:06:45.449Z,3.80
2018-07-31T20:09:19.188Z,3.30
2018-07-31T20:11:47.512Z,3.37
2018-07-31T20:14:15.852Z,3.33
2018-07-31T20:16:44.179Z,3.33
2018-07-31T20:19:12.259Z,3.45
2018-07-31T20:21:40.610Z,3.60
2018-07-31T20:24:08.967Z,3.85
2018-07-31T20:26:37.292Z,3.50
2018-07-31T20:29:05.676Z,3.62
2018-07-31T20:31:34.029Z,3.60
2018-07-31T20:34:02.465Z,3.37
2018-07-31T20:36:30.848Z,3.00
2018-07-31T20:38:59.232Z,3.60
2018-07-31T20:41:27.662Z,3.27
2018-07-31T20:43:55.948Z,3.08
2018-07-31T20:46:24.052Z,3.17
2018-07-31T20:48:52.383Z,3.00
2018-07-31T20:51:20.730Z,3.00
2018-07-31T20:53:49.094Z,2.90
2018-07-31T20:56:17.467Z,2.95
2018-07-31T20:58:45.801Z,2.98
2018-07-31T21:01:14.717Z,2.80
2018-07-31T21:03:43.054Z,2.42
2018-07-31T21:06:11.435Z,2.80
2018-07-31T21:08:39.901Z,2.62
2018-07-31T21:11:08.544Z,2.50
2018-07-31T21:13:36.950Z,2.60
2018-07-31T21:16:05.477Z,2.27
2018-07-31T21:18:34.046Z,2.30
2018-07-31T21:21:02.386Z,2.17
2018-07-31T21:23:30.715Z,2.47
2018-07-31T21:25:59.208Z,2.60
2018-07-31T21:28:28.006Z,2.45
2018-07-31T21:30:56.481Z,2.05
2018-07-31T21:33:24.974Z,2.17
2018-07-31T21:35:53.412Z,2.42
2018-07-31T21:38:21.789Z,2.05
2018-07-31T21:40:50.530Z,2.10
2018-07-31T21:43:19.033Z,2.10
2018-07-31T21:45:47.501Z,2.10
2018-07-31T21:48:15.906Z,2.22
2018-07-31T21:50:44.320Z,2.12
2018-07-31T21:53:12.708Z,2.40
2018-07-31T21:55:41.124Z,2.35
2018-07-31T21:58:09.493Z,2.30
2018-07-31T22:00:43.201Z,2.50
2018-07-31T22:03:11.580Z,2.50
2018-07-31T22:05:40.056Z,2.00
2018-07-31T22:08:08.108Z,2.37
2018-07-31T22:10:36.464Z,2.70
2018-07-31T22:13:04.769Z,2.45
2018-07-31T22:15:33.107Z,2.30
2018-07-31T22:18:01.444Z,2.27
2018-07-31T22:20:29.555Z,2.27
2018-07-31T22:22:57.884Z,2.60
2018-07-31T22:25:26.228Z,2.70
2018-07-31T22:27:54.544Z,2.50
2018-07-31T22:30:22.905Z,2.67
2018-07-31T22:32:51.220Z,2.72
2018-07-31T22:35:19.547Z,3.12
2018-07-31T22:37:47.884Z,2.77
2018-07-31T22:40:16.227Z,2.98
2018-07-31T22:42:44.579Z,2.70
2018-07-31T22:45:12.895Z,3.00
2018-07-31T22:47:41.021Z,2.55
2018-07-31T22:50:09.336Z,3.12
2018-07-31T22:52:37.676Z,2.92
2018-07-31T22:55:06.068Z,3.20
2018-07-31T22:57:34.496Z,2.60
2018-07-31T23:00:02.555Z,3.30
2018-07-31T23:02:30.892Z,2.80
2018-07-31T23:04:59.208Z,3.20
2018-07-31T23:07:27.660Z,3.10
2018-07-31T23:09:57.109Z,3.40
2018-07-31T23:12:26.120Z,3.42
2018-07-31T23:14:54.458Z,3.77
2018-07-31T23:17:22.815Z,3.70
2018-07-31T23:19:51.131Z,4.10
2018-07-31T23:22:24.735Z,3.70
2018-07-31T23:24:53.279Z,3.73
2018-07-31T23:27:21.644Z,4.10
2018-07-31T23:29:50.992Z,3.97
2018-07-31T23:32:19.428Z,4.03
2018-07-31T23:34:47.856Z,3.70
2018-07-31T23:37:16.261Z,4.10
2018-07-31T23:39:44.653Z,3.30
2018-07-31T23:42:13.063Z,3.60
2018-07-31T23:44:41.440Z,3.80
2018-07-31T23:47:09.906Z,3.60
2018-07-31T23:49:38.276Z,3.63
2018-07-31T23:52:06.777Z,3.10
2018-07-31T23:54:35.169Z,3.50
2018-07-31T23:57:03.596Z,3.33
2018-07-31T23:59:32.006Z,3.50
